createdAt,value
2023-01-19T00:03:18.773Z,40.1
2023-01-19T00:09:25.132Z,40.2
2023-01-19T00:15:30.873Z,40.2
2023-01-19T00:21:36.867Z,40.1
2023-01-19T00:27:43.313Z,40.1
2023-01-19T00:33:49.247Z,40.2
2023-01-19T00:39:55.218Z,40.1
2023-01-19T00:46:01.131Z,40.2
2023-01-19T00:52:07.477Z,40.2
2023-01-19T00:58:13.427Z,40.2
2023-01-19T01:04:19.320Z,40.2
2023-01-19T01:10:25.134Z,40.2
2023-01-19T01:16:31.007Z,40.1
2023-01-19T01:22:37.292Z,40.1
2023-01-19T01:28:42.705Z,40.1
2023-01-19T01:34:48.417Z,40.2
2023-01-19T01:40:53.977Z,40.2
2023-01-19T01:46:59.781Z,40.2
2023-01-19T01:53:10.558Z,40.2
2023-01-19T01:59:16.661Z,40.2
2023-01-19T02:05:22.448Z,40.2
2023-01-19T02:11:28.182Z,40.2
2023-01-19T02:17:34.490Z,40.2
2023-01-19T02:23:40.425Z,40.2
2023-01-19T02:29:46.127Z,40.2
2023-01-19T02:35:52.540Z,40.1
2023-01-19T02:41:58.313Z,40.2
2023-01-19T02:48:03.657Z,40.2
2023-01-19T02:54:09.689Z,40.1
2023-01-19T03:00:15.455Z,40.1
2023-01-19T03:06:21.106Z,40.1
2023-01-19T03:12:27.389Z,40.1
2023-01-19T03:18:33.790Z,40.1
2023-01-19T03:24:40.592Z,40.1
2023-01-19T03:30:46.186Z,40
2023-01-19T03:36:51.730Z,40.1
2023-01-19T03:42:57.550Z,40.1
2023-01-19T03:49:03.477Z,40.1
2023-01-19T03:55:08.695Z,40.1
2023-01-19T04:01:15.195Z,40.1
2023-01-19T04:07:21.102Z,40.1
2023-01-19T04:13:26.789Z,40
2023-01-19T04:19:32.582Z,40.1
2023-01-19T04:25:41.084Z,40
2023-01-19T04:31:46.976Z,40
2023-01-19T04:37:52.752Z,40
2023-01-19T04:43:58.545Z,39.9
2023-01-19T04:50:04.522Z,39.9
2023-01-19T04:56:10.305Z,40
2023-01-19T05:02:16.472Z,39.9
2023-01-19T05:08:22.141Z,39.9
2023-01-19T05:14:27.829Z,39.7
2023-01-19T05:20:33.820Z,39.7
2023-01-19T05:26:39.815Z,39.6
2023-01-19T05:32:46.059Z,39.6
2023-01-19T05:38:52.578Z,39.5
2023-01-19T05:44:58.348Z,39.5
2023-01-19T05:51:04.337Z,39.6
2023-01-19T05:57:10.305Z,39.6
2023-01-19T06:03:16.000Z,39.6
2023-01-19T06:09:21.863Z,39.5
2023-01-19T06:15:27.633Z,39.5
2023-01-19T06:21:33.417Z,39.5
2023-01-19T06:27:39.511Z,39.5
2023-01-19T06:33:45.781Z,39.5
2023-01-19T06:39:51.783Z,39.5
2023-01-19T06:45:57.566Z,39.6
2023-01-19T06:52:03.529Z,39.4
2023-01-19T06:58:09.298Z,39.5
2023-01-19T07:04:15.100Z,39.5
2023-01-19T07:10:20.665Z,39.3
2023-01-19T07:16:26.781Z,39.4
2023-01-19T07:22:32.705Z,39.3
2023-01-19T07:28:38.379Z,39.3
2023-01-19T07:34:44.153Z,39.2
2023-01-19T07:40:49.742Z,39.1
2023-01-19T07:46:55.915Z,39.1
2023-01-19T07:53:02.873Z,39
2023-01-19T07:59:08.498Z,39
2023-01-19T08:05:14.667Z,38.9
2023-01-19T08:11:23.715Z,38.9
2023-01-19T08:17:29.207Z,38.8
2023-01-19T08:23:35.698Z,38.8
2023-01-19T08:29:41.456Z,38.8
2023-01-19T08:35:47.865Z,38.7
2023-01-19T08:41:53.829Z,38.7
2023-01-19T08:47:59.592Z,38.6
2023-01-19T08:54:05.590Z,38.6
2023-01-19T09:00:11.573Z,38.5
2023-01-19T09:06:17.619Z,38.6
2023-01-19T09:12:23.569Z,38.6
2023-01-19T09:18:30.140Z,38.6
2023-01-19T09:24:35.907Z,38.5
2023-01-19T09:30:41.647Z,38.5
2023-01-19T09:36:47.665Z,38.4
2023-01-19T09:42:53.657Z,38.6
2023-01-19T09:48:59.429Z,38.5
2023-01-19T09:55:05.383Z,38.4
2023-01-19T10:01:11.226Z,38.4
2023-01-19T10:07:17.383Z,38.4
2023-01-19T10:13:22.948Z,38.3
2023-01-19T10:19:28.706Z,38.5
2023-01-19T10:25:35.029Z,38.3
2023-01-19T10:31:41.822Z,38.4
2023-01-19T10:37:47.900Z,38.3
2023-01-19T10:43:53.711Z,38.3
2023-01-19T10:50:00.225Z,38.2
2023-01-19T10:56:06.281Z,38.2
2023-01-19T11:02:12.466Z,38.2
2023-01-19T11:08:18.631Z,38.2
2023-01-19T11:14:24.576Z,38.1
2023-01-19T11:20:30.981Z,38.1
2023-01-19T11:26:36.822Z,38.1
2023-01-19T11:32:42.770Z,38.1
2023-01-19T11:38:48.503Z,38.1
2023-01-19T11:44:53.779Z,38
2023-01-19T11:50:59.851Z,38
2023-01-19T11:57:05.653Z,38
2023-01-19T12:03:12.235Z,38
2023-01-19T12:09:18.022Z,37.8
2023-01-19T12:15:23.793Z,37.8
2023-01-19T12:21:29.819Z,37.8
2023-01-19T12:27:35.543Z,37.8
2023-01-19T12:33:41.534Z,37.9
2023-01-19T12:39:47.179Z,37.8
2023-01-19T12:45:53.328Z,37.8
2023-01-19T12:51:59.278Z,37.7
2023-01-19T12:58:05.646Z,37.8
2023-01-19T13:04:11.228Z,37.7
2023-01-19T13:10:16.820Z,37.7
2023-01-19T13:16:23.382Z,37.7
2023-01-19T13:22:29.417Z,37.6
2023-01-19T13:28:35.135Z,37.7
2023-01-19T13:34:41.233Z,37.6
2023-01-19T13:40:47.110Z,37.6
2023-01-19T13:46:52.462Z,37.7
2023-01-19T13:52:58.252Z,37.6
2023-01-19T13:59:04.417Z,37.7
2023-01-19T14:05:10.617Z,37.7
2023-01-19T14:11:16.410Z,37.6
2023-01-19T14:17:22.589Z,37.5
2023-01-19T14:23:28.194Z,37.6
2023-01-19T14:29:35.999Z,37.6
2023-01-19T14:35:41.563Z,37.5
2023-01-19T14:41:47.534Z,37.5
2023-01-19T14:47:53.703Z,37.5
2023-01-19T14:54:05.233Z,37.4
2023-01-19T15:00:11.219Z,37.4
2023-01-19T15:06:17.615Z,37.5
2023-01-19T15:12:23.572Z,37.4
2023-01-19T15:18:29.774Z,37.4
2023-01-19T15:24:35.942Z,37.4
2023-01-19T15:30:41.807Z,37.4
2023-01-19T15:36:48.109Z,37.3
2023-01-19T15:42:54.309Z,37.3
2023-01-19T15:49:00.063Z,37.4
2023-01-19T15:55:06.052Z,37.3
2023-01-19T16:01:12.128Z,37.4
2023-01-19T16:07:18.068Z,37.4
2023-01-19T16:13:23.583Z,37.4
2023-01-19T16:19:29.227Z,37.3
2023-01-19T16:25:34.711Z,37.4
2023-01-19T16:31:40.782Z,37.3
2023-01-19T16:37:47.121Z,37.4
2023-01-19T16:43:53.294Z,37.3
2023-01-19T16:49:59.461Z,37.3
2023-01-19T16:56:05.456Z,37.3
2023-01-19T17:02:11.575Z,37.4
2023-01-19T17:08:17.634Z,37.4
2023-01-19T17:14:24.228Z,37.2
2023-01-19T17:20:29.985Z,37.3
2023-01-19T17:26:35.671Z,37.3
2023-01-19T17:32:41.551Z,37.3
2023-01-19T17:38:47.509Z,37.3
2023-01-19T17:44:53.109Z,37.2
2023-01-19T17:50:58.736Z,37.3
2023-01-19T17:57:04.655Z,37.3
2023-01-19T18:03:10.223Z,37.2
2023-01-19T18:09:15.993Z,37.2
2023-01-19T18:15:21.152Z,37.2
2023-01-19T18:21:26.944Z,37.2
2023-01-19T18:27:33.178Z,37.2
2023-01-19T18:33:39.301Z,37.1
2023-01-19T18:39:45.505Z,37.1
2023-01-19T18:45:51.480Z,37.2
2023-01-19T18:51:57.057Z,37.2
2023-01-19T18:58:03.226Z,37.2
2023-01-19T19:04:09.291Z,37.2
2023-01-19T19:10:15.607Z,37.1
2023-01-19T19:16:22.214Z,37.1
2023-01-19T19:22:28.794Z,37.1
2023-01-19T19:28:34.594Z,37.2
2023-01-19T19:34:40.339Z,37.1
2023-01-19T19:40:46.341Z,37.2
2023-01-19T19:46:52.551Z,37.1
2023-01-19T19:52:58.769Z,37.1
2023-01-19T19:59:04.703Z,37.1
2023-01-19T20:05:10.468Z,37.1
2023-01-19T20:11:16.622Z,37.1
2023-01-19T20:17:22.621Z,37.2
2023-01-19T20:23:28.020Z,37.1
2023-01-19T20:29:34.193Z,37.2
2023-01-19T20:35:40.224Z,37.2
2023-01-19T20:41:46.144Z,37.2
2023-01-19T20:47:52.104Z,37.1
2023-01-19T20:53:57.698Z,37.1
2023-01-19T21:00:03.875Z,37.2
2023-01-19T21:06:09.837Z,37.2
2023-01-19T21:12:16.066Z,37.2
2023-01-19T21:18:21.816Z,37.2
2023-01-19T21:24:27.586Z,37.2
2023-01-19T21:30:34.204Z,37.1
2023-01-19T21:36:40.005Z,37.2
2023-01-19T21:42:45.535Z,37.3
2023-01-19T21:48:51.101Z,37.3
2023-01-19T21:54:57.099Z,37.3
2023-01-19T22:01:02.966Z,37.4
2023-01-19T22:07:09.514Z,37.4
2023-01-19T22:13:15.231Z,37.4
2023-01-19T22:19:21.620Z,37.3
2023-01-19T22:25:27.609Z,37.4
2023-01-19T22:31:33.941Z,37.4
2023-01-19T22:37:39.980Z,37.5
2023-01-19T22:43:45.952Z,37.5
2023-01-19T22:49:51.736Z,37.5
2023-01-19T22:55:57.897Z,37.4
2023-01-19T23:02:04.755Z,37.5
2023-01-19T23:08:10.687Z,37.6
2023-01-19T23:14:16.687Z,37.5
2023-01-19T23:20:22.666Z,37.4
2023-01-19T23:26:28.432Z,37.5
2023-01-19T23:32:34.422Z,37.4
2023-01-19T23:38:41.031Z,37.4
2023-01-19T23:44:46.984Z,37.4
2023-01-19T23:50:52.983Z,37.4
2023-01-19T23:56:58.941Z,37.4
